PWSweather.com
Personal Weather Stations
Station Observations
UISISLE1
Newport, Isle ofWight, ISLE OF WIGHT PO30 2JX

NewportIsle ofWight, ISLE OF WIGHT PO30 2JX

Lat: 50.72, Lon: -1.27

Elevation: 45

Station Type: Davis Vantage Pro Plus

http://www.isleofwightweather.co.uk

Latest ConditionsUpdated 10:15:03 PM GMT Thursday, Jul 20, 2017
Currently Today's Max Today's Min Today's Average
Temperature 58.7°F14.8°C 68.3°F20.2°C 58.7°F14.8°C 63.3°F17.4°C
Dew Point 52.2°F11.2°C 62.1°F16.7°C 50.7°F10.4°C 56.3°F13.5°C
Winds 3.6 mph SW5.8 kmh SW 13.5 mph W21.7 kmh W - 6.4 mph 10.3 kmh
Wind Gusts 5.0 mph8.0 kmh 27.0 mph43.5 kmh - -
Humidity 79% 95% 56% 79%
Pressure 29.87 in1011.5 mb 29.89 in1012.2 mb 29.67 in1004.7 mb -
Precipitation - 0.03 in0.8 mm - -
Hour Temp Dew Point Humidity Winds Wind Gusts Pressure Precip Precip Rate Daily Precip Total
10:15 PM 58.7°F14.8°C 52.2°F11.2°C 79% 3.6 mph SW5.8 kmh SW 5.0 mph8.0 kmh 29.87 in1011.5 mb - 0.00 in0.0 mm 0.03 in0.8 mm
10:00 PM 59.0°F15.0°C 52.1°F11.2°C 78% 4.3 mph SW6.9 kmh SW 6.0 mph9.7 kmh 29.88 in1011.9 mb - 0.00 in0.0 mm 0.03 in0.8 mm
09:45 PM 59.2°F15.1°C 52.0°F11.1°C 77% 2.4 mph SW3.9 kmh SW 6.0 mph9.7 kmh 29.88 in1011.9 mb - 0.00 in0.0 mm 0.03 in0.8 mm
09:30 PM 59.3°F15.2°C 51.7°F10.9°C 76% 3.1 mph SW5.0 kmh SW 5.0 mph8.0 kmh 29.88 in1011.9 mb - 0.00 in0.0 mm 0.03 in0.8 mm
09:15 PM 59.4°F15.2°C 51.8°F11.0°C 76% 3.2 mph SW5.1 kmh SW 7.0 mph11.3 kmh 29.88 in1011.9 mb - 0.00 in0.0 mm 0.03 in0.8 mm
09:00 PM 59.6°F15.3°C 51.7°F10.9°C 75% 4.5 mph SW7.2 kmh SW 8.0 mph12.9 kmh 29.88 in1011.9 mb - 0.00 in0.0 mm 0.03 in0.8 mm
08:45 PM 59.7°F15.4°C 51.8°F11.0°C 75% 5.3 mph SW8.5 kmh SW 6.0 mph9.7 kmh 29.89 in1012.2 mb - 0.00 in0.0 mm 0.03 in0.8 mm
08:30 PM 59.9°F15.5°C 52.0°F11.1°C 75% 6.4 mph WSW10.3 kmh WSW 9.0 mph14.5 kmh 29.88 in1011.9 mb - 0.00 in0.0 mm 0.03 in0.8 mm
08:15 PM 60.2°F15.7°C 52.2°F11.2°C 75% 5.0 mph W8.0 kmh W 7.0 mph11.3 kmh 29.89 in1012.2 mb - 0.00 in0.0 mm 0.03 in0.8 mm
08:00 PM 60.5°F15.8°C 52.5°F11.4°C 75% 4.3 mph SW6.9 kmh SW 9.0 mph14.5 kmh 29.88 in1011.9 mb - 0.00 in0.0 mm 0.03 in0.8 mm
07:45 PM 60.7°F15.9°C 52.7°F11.5°C 75% 6.0 mph WSW9.7 kmh WSW 10.0 mph16.1 kmh 29.88 in1011.9 mb - 0.00 in0.0 mm 0.03 in0.8 mm
07:30 PM 60.9°F16.1°C 52.6°F11.4°C 74% 6.1 mph SW9.8 kmh SW 10.0 mph16.1 kmh 29.89 in1012.2 mb - 0.00 in0.0 mm 0.03 in0.8 mm
07:15 PM 61.2°F16.2°C 52.1°F11.2°C 72% 7.3 mph WSW11.7 kmh WSW 11.0 mph17.7 kmh 29.88 in1011.9 mb - 0.00 in0.0 mm 0.03 in0.8 mm
07:00 PM 61.5°F16.4°C 52.0°F11.1°C 71% 4.2 mph W6.8 kmh W 10.0 mph16.1 kmh 29.88 in1011.9 mb - 0.00 in0.0 mm 0.03 in0.8 mm
06:45 PM 62.0°F16.7°C 52.1°F11.2°C 70% 8.2 mph WSW13.2 kmh WSW 13.0 mph20.9 kmh 29.88 in1011.9 mb - 0.00 in0.0 mm 0.03 in0.8 mm
06:30 PM 62.7°F17.1°C 52.8°F11.6°C 70% 9.3 mph W15.0 kmh W 15.0 mph24.1 kmh 29.88 in1011.9 mb - 0.00 in0.0 mm 0.03 in0.8 mm
06:15 PM 63.3°F17.4°C 53.7°F12.1°C 71% 8.3 mph WSW13.4 kmh WSW 14.0 mph22.5 kmh 29.88 in1011.9 mb - 0.00 in0.0 mm 0.03 in0.8 mm
06:00 PM 63.6°F17.6°C 53.2°F11.8°C 69% 6.9 mph W11.1 kmh W 12.0 mph19.3 kmh 29.87 in1011.5 mb - 0.00 in0.0 mm 0.03 in0.8 mm
05:45 PM 63.8°F17.7°C 53.8°F12.1°C 70% 11.1 mph SW17.9 kmh SW 20.0 mph32.2 kmh 29.87 in1011.5 mb - 0.00 in0.0 mm 0.03 in0.8 mm
05:30 PM 64.0°F17.8°C 53.6°F12.0°C 69% 9.6 mph SSW15.4 kmh SSW 14.0 mph22.5 kmh 29.87 in1011.5 mb - 0.00 in0.0 mm 0.03 in0.8 mm
05:15 PM 64.1°F17.8°C 54.1°F12.3°C 70% 10.8 mph W17.4 kmh W 13.4 mph21.6 kmh 29.87 in1011.5 mb - 0.00 in0.0 mm 0.03 in0.8 mm
05:00 PM 64.1°F17.8°C 52.9°F11.6°C 67% 11.6 mph WSW18.7 kmh WSW 16.0 mph25.7 kmh 29.87 in1011.5 mb - 0.00 in0.0 mm 0.03 in0.8 mm
04:45 PM 64.2°F17.9°C 54.6°F12.6°C 71% 12.0 mph SW19.3 kmh SW 27.0 mph43.5 kmh 29.86 in1011.2 mb - 0.00 in0.0 mm 0.03 in0.8 mm
04:30 PM 64.1°F17.8°C 54.2°F12.3°C 70% 11.0 mph WSW17.7 kmh WSW 19.0 mph30.6 kmh 29.87 in1011.5 mb - 0.00 in0.0 mm 0.03 in0.8 mm
04:15 PM 64.4°F18.0°C 54.4°F12.4°C 70% 9.0 mph SW14.5 kmh SW 12.0 mph19.3 kmh 29.87 in1011.5 mb - 0.00 in0.0 mm 0.03 in0.8 mm
04:00 PM 64.9°F18.3°C 54.1°F12.3°C 68% 8.8 mph SW14.2 kmh SW 19.0 mph30.6 kmh 29.86 in1011.2 mb - 0.00 in0.0 mm 0.03 in0.8 mm
03:45 PM 65.8°F18.8°C 54.5°F12.5°C 67% 10.5 mph SSW16.9 kmh SSW 15.0 mph24.1 kmh 29.86 in1011.2 mb - 0.00 in0.0 mm 0.03 in0.8 mm
03:30 PM 66.1°F18.9°C 53.6°F12.0°C 64% 11.4 mph WSW18.3 kmh WSW 18.5 mph29.8 kmh 29.86 in1011.2 mb - 0.00 in0.0 mm 0.03 in0.8 mm
03:15 PM 66.0°F18.9°C 53.0°F11.7°C 63% 10.3 mph WSW16.6 kmh WSW 18.0 mph29.0 kmh 29.86 in1011.2 mb - 0.00 in0.0 mm 0.03 in0.8 mm
03:00 PM 65.6°F18.7°C 53.9°F12.2°C 66% 7.7 mph SW12.4 kmh SW 21.0 mph33.8 kmh 29.86 in1011.2 mb - 0.00 in0.0 mm 0.03 in0.8 mm
02:45 PM 66.6°F19.2°C 53.6°F12.0°C 63% 10.4 mph SW16.7 kmh SW 20.0 mph32.2 kmh 29.86 in1011.2 mb - 0.00 in0.0 mm 0.03 in0.8 mm
02:30 PM 68.2°F20.1°C 54.7°F12.6°C 62% 13.5 mph W21.7 kmh W 19.0 mph30.6 kmh 29.85 in1010.8 mb - 0.00 in0.0 mm 0.03 in0.8 mm
02:15 PM 68.3°F20.2°C 55.2°F12.9°C 63% 11.3 mph SW18.2 kmh SW 19.6 mph31.5 kmh 29.85 in1010.8 mb - 0.00 in0.0 mm 0.03 in0.8 mm
02:00 PM 67.5°F19.7°C 54.1°F12.3°C 62% 8.2 mph WSW13.2 kmh WSW 17.0 mph27.4 kmh 29.84 in1010.5 mb - 0.00 in0.0 mm 0.03 in0.8 mm
01:45 PM 67.3°F19.6°C 54.3°F12.4°C 63% 10.2 mph SW16.4 kmh SW 16.0 mph25.7 kmh 29.84 in1010.5 mb - 0.00 in0.0 mm 0.03 in0.8 mm
01:30 PM 65.6°F18.7°C 52.3°F11.3°C 62% 8.7 mph SW14.0 kmh SW 12.0 mph19.3 kmh 29.84 in1010.5 mb - 0.00 in0.0 mm 0.03 in0.8 mm
01:15 PM 65.9°F18.8°C 53.8°F12.1°C 65% 9.2 mph W14.8 kmh W 15.0 mph24.1 kmh 29.83 in1010.2 mb - 0.00 in0.0 mm 0.03 in0.8 mm
01:00 PM 65.2°F18.4°C 51.0°F10.6°C 60% 7.8 mph WNW12.6 kmh WNW 13.4 mph21.6 kmh 29.83 in1010.2 mb - 0.00 in0.0 mm 0.03 in0.8 mm
12:45 PM 66.1°F18.9°C 50.9°F10.5°C 58% 7.0 mph NW11.3 kmh NW 12.4 mph20.0 kmh 29.83 in1010.2 mb - 0.00 in0.0 mm 0.03 in0.8 mm
12:30 PM 66.9°F19.4°C 50.7°F10.4°C 56% 9.5 mph SW15.3 kmh SW 16.5 mph26.6 kmh 29.82 in1009.8 mb - 0.00 in0.0 mm 0.03 in0.8 mm
12:15 PM 66.4°F19.1°C 51.6°F10.9°C 59% 8.0 mph W12.9 kmh W 14.0 mph22.5 kmh 29.82 in1009.8 mb - 0.00 in0.0 mm 0.03 in0.8 mm
12:00 PM 67.1°F19.5°C 50.9°F10.5°C 56% 9.6 mph SW15.4 kmh SW 16.0 mph25.7 kmh 29.82 in1009.8 mb - 0.00 in0.0 mm 0.03 in0.8 mm
11:45 AM 67.3°F19.6°C 53.4°F11.9°C 61% 6.4 mph WSW10.3 kmh WSW 15.0 mph24.1 kmh 29.82 in1009.8 mb - 0.00 in0.0 mm 0.03 in0.8 mm
11:30 AM 67.7°F19.8°C 53.3°F11.8°C 60% 9.4 mph NW15.1 kmh NW 14.0 mph22.5 kmh 29.81 in1009.5 mb - 0.00 in0.0 mm 0.03 in0.8 mm
11:15 AM 67.2°F19.6°C 53.3°F11.8°C 61% 6.1 mph W9.8 kmh W 6.2 mph10.0 kmh 29.81 in1009.5 mb - 0.00 in0.0 mm 0.03 in0.8 mm
11:00 AM 66.7°F19.3°C 55.0°F12.8°C 66% 9.4 mph SW15.1 kmh SW 17.5 mph28.2 kmh 29.80 in1009.1 mb - 0.00 in0.0 mm 0.03 in0.8 mm
10:45 AM 65.7°F18.7°C 54.4°F12.4°C 67% 8.3 mph W13.4 kmh W 10.3 mph16.6 kmh 29.80 in1009.1 mb - 0.00 in0.0 mm 0.03 in0.8 mm
10:30 AM 65.6°F18.7°C 56.7°F13.7°C 73% 5.0 mph WNW8.0 kmh WNW 7.2 mph11.6 kmh 29.79 in1008.8 mb - 0.00 in0.0 mm 0.03 in0.8 mm
10:15 AM 64.0°F17.8°C 54.4°F12.4°C 71% 7.6 mph SW12.2 kmh SW 10.3 mph16.6 kmh 29.79 in1008.8 mb - 0.00 in0.0 mm 0.03 in0.8 mm
10:00 AM 63.7°F17.6°C 54.1°F12.3°C 71% 4.7 mph NNW7.6 kmh NNW 7.2 mph11.6 kmh 29.78 in1008.5 mb - 0.00 in0.0 mm 0.03 in0.8 mm
09:45 AM 63.8°F17.7°C 55.0°F12.8°C 73% 9.1 mph W14.6 kmh W 15.5 mph24.9 kmh 29.78 in1008.5 mb - 0.00 in0.0 mm 0.03 in0.8 mm
09:30 AM 62.7°F17.1°C 55.8°F13.2°C 78% 5.6 mph NW9.0 kmh NW 9.3 mph15.0 kmh 29.78 in1008.5 mb - 0.00 in0.0 mm 0.03 in0.8 mm
09:15 AM 61.8°F16.6°C 56.6°F13.7°C 83% 10.9 mph WSW17.5 kmh WSW 12.4 mph20.0 kmh 29.78 in1008.5 mb - 0.00 in0.0 mm 0.03 in0.8 mm
09:00 AM 60.7°F15.9°C 56.8°F13.8°C 87% 7.4 mph N11.9 kmh N 11.3 mph18.2 kmh 29.77 in1008.1 mb - 0.00 in0.0 mm 0.03 in0.8 mm
08:45 AM 59.8°F15.4°C 56.5°F13.6°C 89% 6.9 mph NW11.1 kmh NW 13.4 mph21.6 kmh 29.76 in1007.8 mb - 0.01 in0.3 mm 0.03 in0.8 mm
08:30 AM 59.6°F15.3°C 57.3°F14.1°C 92% 7.5 mph WNW12.1 kmh WNW 13.4 mph21.6 kmh 29.75 in1007.5 mb - 0.00 in0.0 mm 0.02 in0.5 mm
08:15 AM 59.7°F15.4°C 57.7°F14.3°C 93% 7.4 mph NW11.9 kmh NW 12.4 mph20.0 kmh 29.75 in1007.5 mb - 0.00 in0.0 mm 0.02 in0.5 mm
08:00 AM 59.6°F15.3°C 57.6°F14.2°C 93% 5.8 mph WNW9.3 kmh WNW 12.4 mph20.0 kmh 29.74 in1007.1 mb - 0.00 in0.0 mm 0.02 in0.5 mm
07:45 AM 59.8°F15.4°C 57.8°F14.3°C 93% 3.8 mph W6.1 kmh W 7.2 mph11.6 kmh 29.73 in1006.8 mb - 0.00 in0.0 mm 0.02 in0.5 mm
07:30 AM 59.8°F15.4°C 57.8°F14.3°C 93% 7.9 mph NW12.7 kmh NW 10.3 mph16.6 kmh 29.73 in1006.8 mb - 0.00 in0.0 mm 0.02 in0.5 mm
07:15 AM 59.9°F15.5°C 57.9°F14.4°C 93% 5.0 mph WNW8.0 kmh WNW 12.0 mph19.3 kmh 29.72 in1006.4 mb - 0.00 in0.0 mm 0.02 in0.5 mm
07:00 AM 60.5°F15.8°C 58.5°F14.7°C 93% 6.5 mph NW10.5 kmh NW 8.0 mph12.9 kmh 29.71 in1006.1 mb - 0.00 in0.0 mm 0.02 in0.5 mm
06:45 AM 61.4°F16.3°C 59.7°F15.4°C 94% 4.1 mph W6.6 kmh W 6.2 mph10.0 kmh 29.70 in1005.8 mb - 0.00 in0.0 mm 0.02 in0.5 mm
06:30 AM 61.9°F16.6°C 60.2°F15.7°C 94% 3.7 mph WSW6.0 kmh WSW 5.1 mph8.2 kmh 29.69 in1005.4 mb - 0.00 in0.0 mm 0.02 in0.5 mm
06:15 AM 63.3°F17.4°C 61.9°F16.6°C 95% 4.0 mph NW6.4 kmh NW 10.3 mph16.6 kmh 29.68 in1005.1 mb - 0.00 in0.0 mm 0.02 in0.5 mm
06:00 AM 63.2°F17.3°C 61.7°F16.5°C 95% 4.7 mph SW7.6 kmh SW 7.0 mph11.3 kmh 29.68 in1005.1 mb - 0.00 in0.0 mm 0.02 in0.5 mm
05:45 AM 63.2°F17.3°C 61.7°F16.5°C 95% 6.6 mph SW10.6 kmh SW 11.0 mph17.7 kmh 29.68 in1005.1 mb - 0.00 in0.0 mm 0.02 in0.5 mm
05:30 AM 63.2°F17.3°C 61.7°F16.5°C 95% 3.9 mph SW6.3 kmh SW 6.0 mph9.7 kmh 29.68 in1005.1 mb - 0.00 in0.0 mm 0.02 in0.5 mm
05:15 AM 63.3°F17.4°C 61.8°F16.6°C 95% 3.0 mph WSW4.8 kmh WSW 3.0 mph4.8 kmh 29.68 in1005.1 mb - 0.00 in0.0 mm 0.02 in0.5 mm
05:00 AM 63.3°F17.4°C 61.8°F16.6°C 95% 6.8 mph WSW10.9 kmh WSW 9.0 mph14.5 kmh 29.68 in1005.1 mb - 0.00 in0.0 mm 0.02 in0.5 mm
04:45 AM 63.3°F17.4°C 61.9°F16.6°C 95% 6.1 mph SW9.8 kmh SW 9.0 mph14.5 kmh 29.67 in1004.7 mb - 0.00 in0.0 mm 0.02 in0.5 mm
04:30 AM 63.4°F17.4°C 61.9°F16.6°C 95% 6.3 mph SW10.1 kmh SW 10.0 mph16.1 kmh 29.67 in1004.7 mb - 0.00 in0.0 mm 0.02 in0.5 mm
04:15 AM 63.5°F17.5°C 62.0°F16.7°C 95% 5.9 mph SW9.5 kmh SW 8.0 mph12.9 kmh 29.67 in1004.7 mb - 0.00 in0.0 mm 0.02 in0.5 mm
04:00 AM 63.5°F17.5°C 62.0°F16.7°C 95% 5.8 mph SW9.3 kmh SW 8.0 mph12.9 kmh 29.67 in1004.7 mb - 0.00 in0.0 mm 0.02 in0.5 mm
03:45 AM 63.6°F17.6°C 62.1°F16.7°C 95% 4.0 mph SW6.4 kmh SW 8.0 mph12.9 kmh 29.68 in1005.1 mb - 0.00 in0.0 mm 0.02 in0.5 mm
03:30 AM 63.6°F17.6°C 62.1°F16.7°C 95% 6.1 mph SW9.8 kmh SW 9.0 mph14.5 kmh 29.68 in1005.1 mb - 0.00 in0.0 mm 0.02 in0.5 mm
03:15 AM 63.6°F17.6°C 62.1°F16.7°C 95% 3.5 mph SW5.6 kmh SW 4.0 mph6.4 kmh 29.68 in1005.1 mb - 0.00 in0.0 mm 0.02 in0.5 mm
03:00 AM 63.4°F17.4°C 61.7°F16.5°C 94% 5.4 mph WSW8.7 kmh WSW 8.0 mph12.9 kmh 29.68 in1005.1 mb - 0.00 in0.0 mm 0.02 in0.5 mm
02:45 AM 63.4°F17.4°C 61.6°F16.4°C 94% 2.7 mph SW4.3 kmh SW 4.0 mph6.4 kmh 29.69 in1005.4 mb - 0.00 in0.0 mm 0.02 in0.5 mm
02:30 AM 63.3°F17.4°C 61.5°F16.4°C 94% 0.5 mph SW0.8 kmh SW 4.0 mph6.4 kmh 29.69 in1005.4 mb - 0.00 in0.0 mm 0.02 in0.5 mm
02:15 AM 63.3°F17.4°C 61.5°F16.4°C 94% 1.0 mph SW1.6 kmh SW 3.0 mph4.8 kmh 29.69 in1005.4 mb - 0.00 in0.0 mm 0.02 in0.5 mm
02:00 AM 63.3°F17.4°C 61.5°F16.4°C 94% 1.0 mph WSW1.6 kmh WSW 3.0 mph4.8 kmh 29.70 in1005.8 mb - 0.00 in0.0 mm 0.02 in0.5 mm
01:45 AM 63.3°F17.4°C 61.5°F16.4°C 94% 2.8 mph SSW4.5 kmh SSW 5.0 mph8.0 kmh 29.70 in1005.8 mb - 0.00 in0.0 mm 0.02 in0.5 mm
01:30 AM 63.2°F17.3°C 61.4°F16.3°C 94% 3.1 mph SSW5.0 kmh SSW 9.0 mph14.5 kmh 29.71 in1006.1 mb - 0.00 in0.0 mm 0.02 in0.5 mm
01:15 AM 63.1°F17.3°C 61.0°F16.1°C 93% 3.0 mph SW4.8 kmh SW 5.0 mph8.0 kmh 29.70 in1005.8 mb - 0.00 in0.0 mm 0.02 in0.5 mm
01:00 AM 63.0°F17.2°C 60.9°F16.1°C 93% 1.4 mph SW2.3 kmh SW 3.0 mph4.8 kmh 29.70 in1005.8 mb - 0.00 in0.0 mm 0.02 in0.5 mm
12:45 AM 63.0°F17.2°C 60.9°F16.1°C 93% 1.4 mph SW2.3 kmh SW 3.0 mph4.8 kmh 29.71 in1006.1 mb - 0.00 in0.0 mm 0.02 in0.5 mm
12:30 AM 63.2°F17.3°C 61.1°F16.2°C 93% Calm Calm 1.0 mph1.6 kmh 29.70 in1005.8 mb - 0.00 in0.0 mm 0.02 in0.5 mm
12:15 AM 63.3°F17.4°C 61.3°F16.3°C 93% 2.8 mph SW4.5 kmh SW 7.0 mph11.3 kmh 29.71 in1006.1 mb - 0.00 in0.0 mm 0.02 in0.5 mm
12:00 AM 63.5°F17.5°C 61.1°F16.2°C 92% 0.4 mph SW0.6 kmh SW 3.0 mph4.8 kmh 29.71 in1006.1 mb - 0.00 in0.0 mm 0.02 in0.5 mm